createdAt,value
2023-06-04T00:00:28.675Z,41.83
2023-06-04T00:03:16.175Z,41.31
2023-06-04T00:05:43.425Z,42.05
2023-06-04T00:08:10.808Z,42.44
2023-06-04T00:10:40.377Z,42.02
2023-06-04T00:13:07.613Z,41.98
2023-06-04T00:15:34.757Z,42.87
2023-06-04T00:18:02.859Z,43.03
2023-06-04T00:20:30.167Z,42.28
2023-06-04T00:22:57.507Z,42.80
2023-06-04T00:25:24.705Z,43.17
2023-06-04T00:27:52.739Z,41.76
2023-06-04T00:30:20.241Z,41.35
2023-06-04T00:32:47.831Z,41.58
2023-06-04T00:35:15.555Z,41.31
2023-06-04T00:37:42.749Z,41.76
2023-06-04T00:40:10.295Z,42.60
2023-06-04T00:42:38.252Z,42.12
2023-06-04T00:45:08.421Z,41.93
2023-06-04T00:47:36.043Z,42.15
2023-06-04T00:50:03.455Z,42.26
2023-06-04T00:52:31.020Z,42.46
2023-06-04T00:54:58.729Z,42.02
2023-06-04T00:57:25.989Z,42.64
2023-06-04T00:59:53.468Z,42.82
2023-06-04T01:02:23.681Z,43.52
2023-06-04T01:05:09.277Z,44.13
2023-06-04T01:07:39.278Z,44.05
2023-06-04T01:10:07.364Z,43.49
2023-06-04T01:12:34.523Z,43.94
2023-06-04T01:15:01.853Z,43.59
2023-06-04T01:17:47.884Z,43.82
2023-06-04T01:20:35.488Z,43.88
2023-06-04T01:23:14.643Z,43.70
2023-06-04T01:25:44.632Z,42.78
2023-06-04T01:28:13.416Z,42.01
2023-06-04T01:30:43.905Z,41.96
2023-06-04T01:33:13.163Z,41.99
2023-06-04T01:35:40.839Z,43.15
2023-06-04T01:38:08.541Z,43.35
2023-06-04T01:40:36.055Z,43.23
2023-06-04T01:43:04.597Z,43.73
2023-06-04T01:45:31.856Z,43.59
2023-06-04T01:48:04.658Z,43.58
2023-06-04T01:50:31.966Z,43.94
2023-06-04T01:52:59.653Z,44.64
2023-06-04T01:55:28.833Z,45.17
2023-06-04T01:57:56.104Z,45.26
2023-06-04T02:00:23.667Z,47.68
2023-06-04T02:02:51.393Z,48.47
2023-06-04T02:05:18.813Z,48.35
2023-06-04T02:07:48.328Z,48.31
2023-06-04T02:10:17.179Z,48.44
2023-06-04T02:13:03.930Z,47.38
2023-06-04T02:15:32.386Z,46.06
2023-06-04T02:18:13.697Z,48.61
2023-06-04T02:20:41.281Z,47.66
2023-06-04T02:23:08.404Z,46.91
2023-06-04T02:25:35.499Z,46.66
2023-06-04T02:28:02.860Z,47.14
2023-06-04T02:30:30.069Z,46.51
2023-06-04T02:32:57.920Z,48.24
2023-06-04T02:35:25.590Z,48.97
2023-06-04T02:37:52.696Z,48.26
2023-06-04T02:40:20.040Z,48.11
2023-06-04T02:42:47.300Z,47.08
2023-06-04T02:45:15.079Z,45.81
2023-06-04T02:47:42.622Z,46.03
2023-06-04T02:50:10.235Z,46.06
2023-06-04T02:52:41.971Z,46.20
2023-06-04T02:55:12.984Z,47.10
2023-06-04T02:57:44.159Z,48.53
2023-06-04T03:00:14.064Z,48.11
2023-06-04T03:02:46.917Z,47.63
2023-06-04T03:05:15.517Z,47.73
2023-06-04T03:07:44.215Z,48.67
2023-06-04T03:10:12.254Z,50.16
2023-06-04T03:12:39.449Z,50.80
2023-06-04T03:15:07.292Z,50.92
2023-06-04T03:17:34.569Z,51.42
2023-06-04T03:20:02.082Z,50.63
2023-06-04T03:22:30.045Z,51.59
2023-06-04T03:24:57.169Z,53.13
2023-06-04T03:27:24.487Z,52.71
2023-06-04T03:29:51.760Z,51.14
2023-06-04T03:32:19.558Z,51.23
2023-06-04T03:34:47.798Z,52.07
2023-06-04T03:37:15.187Z,51.39
2023-06-04T03:39:42.465Z,50.23
2023-06-04T03:42:11.962Z,50.83
2023-06-04T03:44:39.442Z,51.71
2023-06-04T03:47:08.281Z,50.78
2023-06-04T03:49:35.949Z,50.45
2023-06-04T03:52:03.168Z,50.51
2023-06-04T03:54:31.459Z,51.11
2023-06-04T03:56:58.763Z,51.61
2023-06-04T03:59:25.830Z,52.77
2023-06-04T04:01:53.475Z,54.23
2023-06-04T04:04:21.066Z,55.21
2023-06-04T04:06:48.847Z,54.82
2023-06-04T04:09:16.135Z,52.58
2023-06-04T04:11:43.338Z,51.50
2023-06-04T04:14:11.052Z,51.02
2023-06-04T04:16:38.394Z,51.41
2023-06-04T04:19:08.471Z,51.16
2023-06-04T04:21:38.221Z,50.62
2023-06-04T04:24:05.939Z,50.86
2023-06-04T04:26:33.149Z,50.91
2023-06-04T04:29:00.480Z,50.93
2023-06-04T04:31:31.216Z,50.80
2023-06-04T04:33:58.471Z,51.24
2023-06-04T04:36:25.923Z,50.89
2023-06-04T04:38:54.924Z,50.66
2023-06-04T04:41:24.218Z,49.82
2023-06-04T04:43:53.664Z,48.31
2023-06-04T04:46:24.484Z,48.13
2023-06-04T04:48:51.934Z,46.57
2023-06-04T04:51:19.299Z,46.68
2023-06-04T04:53:46.580Z,46.07
2023-06-04T04:56:14.093Z,44.38
2023-06-04T04:58:44.074Z,43.80
2023-06-04T05:01:11.279Z,43.56
2023-06-04T05:03:38.754Z,43.54
2023-06-04T05:06:06.553Z,43.53
2023-06-04T05:08:33.815Z,43.67
2023-06-04T05:11:01.158Z,42.62
2023-06-04T05:13:29.233Z,42.51
2023-06-04T05:16:07.199Z,43.45
2023-06-04T05:18:41.913Z,43.84
2023-06-04T05:21:12.138Z,42.35
2023-06-04T05:23:43.020Z,42.30
2023-06-04T05:26:10.190Z,42.90
2023-06-04T05:28:37.496Z,42.87
2023-06-04T05:31:05.302Z,43.16
2023-06-04T05:33:34.491Z,41.08
2023-06-04T05:36:05.122Z,40.41
2023-06-04T05:38:36.852Z,39.64
2023-06-04T05:41:06.995Z,39.75
2023-06-04T05:43:35.936Z,40.10
2023-06-04T05:46:03.536Z,40.51
2023-06-04T05:48:31.035Z,39.56
2023-06-04T05:50:58.309Z,40.12
2023-06-04T05:53:25.708Z,39.00
2023-06-04T05:55:53.505Z,39.41
2023-06-04T05:58:20.870Z,39.33
2023-06-04T06:00:50.745Z,39.84
2023-06-04T06:03:18.278Z,40.00
2023-06-04T06:05:46.284Z,39.52
2023-06-04T06:08:14.820Z,38.43
2023-06-04T06:10:42.903Z,38.38
2023-06-04T06:13:10.215Z,37.83
2023-06-04T06:15:37.444Z,37.07
2023-06-04T06:18:05.217Z,37.44
2023-06-04T06:20:32.803Z,37.41
2023-06-04T06:23:07.261Z,38.40
2023-06-04T06:25:34.754Z,38.55
2023-06-04T06:28:07.730Z,38.14
2023-06-04T06:30:36.362Z,37.82
2023-06-04T06:33:03.542Z,37.27
2023-06-04T06:35:30.777Z,36.69
2023-06-04T06:37:57.928Z,37.06
2023-06-04T06:40:25.415Z,37.28
2023-06-04T06:42:52.845Z,36.86
2023-06-04T06:45:20.382Z,35.77
2023-06-04T06:47:47.608Z,36.46
2023-06-04T06:50:15.068Z,35.50
2023-06-04T06:52:42.423Z,35.06
2023-06-04T06:55:09.622Z,34.65
2023-06-04T06:57:36.944Z,34.08
2023-06-04T07:00:05.678Z,34.46
2023-06-04T07:02:33.004Z,33.13
2023-06-04T07:05:00.261Z,32.12
2023-06-04T07:07:27.418Z,31.61
2023-06-04T07:09:54.472Z,31.83
2023-06-04T07:12:21.980Z,31.26
2023-06-04T07:14:49.081Z,31.06
2023-06-04T07:17:16.217Z,31.41
2023-06-04T07:19:43.564Z,31.91
2023-06-04T07:22:11.223Z,32.17
2023-06-04T07:24:40.090Z,31.59
2023-06-04T07:27:15.508Z,30.82
2023-06-04T07:29:46.013Z,29.99
2023-06-04T07:32:13.603Z,31.05
2023-06-04T07:34:40.753Z,30.68
2023-06-04T07:37:10.020Z,30.79
2023-06-04T07:39:37.556Z,31.25
2023-06-04T07:42:06.331Z,30.37
2023-06-04T07:44:33.856Z,30.59
2023-06-04T07:47:01.212Z,30.53
2023-06-04T07:49:28.345Z,30.39
2023-06-04T07:51:56.010Z,30.02
2023-06-04T07:54:23.288Z,30.77
2023-06-04T07:56:56.293Z,30.40
2023-06-04T07:59:23.971Z,29.48
2023-06-04T08:01:55.110Z,29.74
2023-06-04T08:04:22.700Z,29.89
2023-06-04T08:06:50.897Z,29.94
2023-06-04T08:09:18.154Z,29.86
2023-06-04T08:11:45.738Z,30.11
2023-06-04T08:14:13.738Z,30.11
2023-06-04T08:16:41.262Z,29.78
2023-06-04T08:19:09.078Z,29.20
2023-06-04T08:21:36.554Z,29.32
2023-06-04T08:24:04.086Z,29.49
2023-06-04T08:26:31.345Z,28.98
2023-06-04T08:28:58.791Z,28.92
2023-06-04T08:31:26.376Z,28.77
2023-06-04T08:33:53.617Z,29.59
2023-06-04T08:36:21.003Z,29.19
2023-06-04T08:38:52.729Z,28.28
2023-06-04T08:41:22.888Z,28.42
2023-06-04T08:43:50.635Z,28.76
2023-06-04T08:46:18.738Z,29.13
2023-06-04T08:48:46.299Z,29.28
2023-06-04T08:51:14.665Z,30.38
2023-06-04T08:53:43.562Z,29.97
2023-06-04T08:56:11.866Z,29.56
2023-06-04T08:58:41.201Z,28.86
2023-06-04T09:01:09.313Z,28.32
2023-06-04T09:03:37.958Z,28.92
2023-06-04T09:06:06.559Z,28.59
2023-06-04T09:08:38.606Z,28.75
2023-06-04T09:11:07.039Z,29.63
2023-06-04T09:13:34.918Z,29.19
2023-06-04T09:16:03.699Z,29.23
2023-06-04T09:18:31.325Z,29.18
2023-06-04T09:21:09.564Z,28.13
2023-06-04T09:23:49.474Z,27.92
2023-06-04T09:26:17.136Z,28.28
2023-06-04T09:28:46.339Z,27.67
2023-06-04T09:31:17.464Z,28.48
2023-06-04T09:33:45.867Z,27.17
2023-06-04T09:36:13.036Z,28.19
2023-06-04T09:38:40.476Z,28.54
2023-06-04T09:41:13.213Z,27.88
2023-06-04T09:43:41.425Z,27.30
2023-06-04T09:46:16.714Z,27.71
2023-06-04T09:48:45.443Z,27.40
2023-06-04T09:51:20.432Z,27.41
2023-06-04T09:53:58.684Z,27.55
2023-06-04T09:56:29.796Z,27.02
2023-06-04T09:59:02.285Z,25.61
2023-06-04T10:01:31.282Z,25.74
2023-06-04T10:04:04.335Z,25.11
2023-06-04T10:06:34.752Z,26.38
2023-06-04T10:09:09.842Z,26.47
2023-06-04T10:11:52.448Z,25.90
2023-06-04T10:14:24.180Z,26.34
2023-06-04T10:16:52.254Z,27.15
2023-06-04T10:19:20.801Z,26.23
2023-06-04T10:21:48.130Z,26.80
2023-06-04T10:24:16.320Z,26.65
2023-06-04T10:26:44.529Z,25.66
2023-06-04T10:29:13.306Z,25.51
2023-06-04T10:31:42.082Z,25.40
2023-06-04T10:34:09.496Z,25.85
2023-06-04T10:36:46.482Z,25.56
2023-06-04T10:39:14.031Z,24.59
2023-06-04T10:41:41.672Z,24.39
2023-06-04T10:44:09.035Z,24.46
2023-06-04T10:46:43.506Z,24.58
2023-06-04T10:49:15.400Z,25.32
2023-06-04T10:51:44.333Z,25.06
2023-06-04T10:54:22.739Z,24.99
2023-06-04T10:56:50.115Z,26.22
2023-06-04T10:59:18.556Z,25.07
2023-06-04T11:01:46.777Z,25.07
2023-06-04T11:04:25.708Z,25.16
2023-06-04T11:07:09.317Z,25.39
2023-06-04T11:09:49.458Z,24.76
2023-06-04T11:12:17.138Z,25.21
2023-06-04T11:14:57.762Z,24.77
2023-06-04T11:17:25.309Z,24.45
2023-06-04T11:19:55.907Z,25.00
2023-06-04T11:22:23.126Z,24.44
2023-06-04T11:24:52.992Z,23.80
2023-06-04T11:27:28.357Z,23.87
2023-06-04T11:30:03.330Z,23.05
2023-06-04T11:32:31.183Z,23.26
2023-06-04T11:35:07.017Z,23.86
2023-06-04T11:37:34.924Z,23.71
2023-06-04T11:40:02.419Z,23.16
2023-06-04T11:42:30.273Z,24.32
2023-06-04T11:44:58.255Z,23.27
2023-06-04T11:47:26.311Z,23.11
2023-06-04T11:49:57.405Z,22.46
2023-06-04T11:52:24.969Z,21.73
2023-06-04T11:54:52.445Z,21.30
2023-06-04T11:57:19.649Z,22.07
2023-06-04T11:59:46.826Z,21.62
2023-06-04T12:02:14.298Z,21.81
2023-06-04T12:04:41.723Z,21.18
2023-06-04T12:07:10.642Z,21.75
2023-06-04T12:09:41.067Z,22.34
2023-06-04T12:12:09.053Z,22.67
2023-06-04T12:14:36.691Z,22.30
2023-06-04T12:17:08.529Z,21.77
2023-06-04T12:19:49.633Z,20.97
2023-06-04T12:22:17.559Z,21.21
2023-06-04T12:25:03.772Z,21.70
2023-06-04T12:27:32.233Z,21.58
2023-06-04T12:30:01.050Z,21.45
2023-06-04T12:32:29.058Z,21.59
2023-06-04T12:34:56.523Z,20.76
2023-06-04T12:37:26.068Z,20.93
2023-06-04T12:39:54.233Z,22.19
2023-06-04T12:42:21.924Z,21.81
2023-06-04T12:44:49.066Z,21.95
2023-06-04T12:47:17.671Z,21.65
2023-06-04T12:49:56.241Z,21.36
2023-06-04T12:52:27.080Z,21.15
2023-06-04T12:54:54.676Z,21.32
2023-06-04T12:57:21.878Z,21.36
2023-06-04T12:59:49.145Z,21.06
2023-06-04T13:02:16.587Z,21.58
2023-06-04T13:04:46.614Z,21.40
2023-06-04T13:07:14.338Z,22.49
2023-06-04T13:09:41.810Z,22.93
2023-06-04T13:12:10.122Z,22.31
2023-06-04T13:14:37.327Z,22.52
2023-06-04T13:17:20.913Z,23.07
2023-06-04T13:19:50.342Z,23.26
2023-06-04T13:22:17.662Z,23.18
2023-06-04T13:24:44.832Z,22.62
2023-06-04T13:27:12.028Z,22.61
2023-06-04T13:29:39.180Z,22.50
2023-06-04T13:32:06.291Z,22.35
2023-06-04T13:34:33.882Z,22.28
2023-06-04T13:37:01.278Z,21.64
2023-06-04T13:39:28.487Z,22.45
2023-06-04T13:41:56.122Z,22.14
2023-06-04T13:44:27.412Z,22.55
2023-06-04T13:46:55.315Z,22.54
2023-06-04T13:49:22.661Z,22.19
2023-06-04T13:51:52.088Z,22.24
2023-06-04T13:54:19.360Z,22.68
2023-06-04T13:56:46.740Z,22.72
2023-06-04T13:59:14.005Z,22.30
2023-06-04T14:01:41.279Z,22.05
2023-06-04T14:04:08.961Z,22.01
2023-06-04T14:06:36.625Z,21.88
2023-06-04T14:09:04.678Z,21.09
2023-06-04T14:11:33.369Z,21.38
2023-06-04T14:14:00.698Z,20.87
2023-06-04T14:16:28.309Z,20.50
2023-06-04T14:18:56.261Z,20.17
2023-06-04T14:21:23.363Z,19.52
2023-06-04T14:23:50.913Z,19.78
2023-06-04T14:26:18.785Z,19.72
2023-06-04T14:28:46.149Z,19.88
2023-06-04T14:31:13.575Z,20.52
2023-06-04T14:33:40.976Z,20.48
2023-06-04T14:36:08.306Z,20.72
2023-06-04T14:38:35.729Z,20.92
2023-06-04T14:41:02.939Z,21.40
2023-06-04T14:43:30.406Z,21.67
2023-06-04T14:45:57.775Z,21.74
2023-06-04T14:48:25.461Z,22.28
2023-06-04T14:50:54.223Z,22.49
2023-06-04T14:53:21.507Z,21.86
2023-06-04T14:55:48.861Z,21.81
2023-06-04T14:58:16.779Z,21.65
2023-06-04T15:00:43.991Z,21.03
2023-06-04T15:03:11.571Z,20.89
2023-06-04T15:05:39.090Z,21.33
2023-06-04T15:08:06.495Z,21.50
2023-06-04T15:10:34.763Z,21.68
2023-06-04T15:13:02.048Z,21.91
2023-06-04T15:15:29.470Z,22.37
2023-06-04T15:17:56.922Z,22.97
2023-06-04T15:20:25.884Z,23.33
2023-06-04T15:22:54.029Z,23.17
2023-06-04T15:25:21.378Z,23.47
2023-06-04T15:27:49.073Z,24.33
2023-06-04T15:30:17.801Z,23.94
2023-06-04T15:32:45.291Z,23.43
2023-06-04T15:35:12.933Z,22.99
2023-06-04T15:37:40.052Z,22.66
2023-06-04T15:40:10.350Z,22.76
2023-06-04T15:42:37.734Z,22.62
2023-06-04T15:45:06.033Z,21.98
2023-06-04T15:47:34.402Z,22.17
2023-06-04T15:50:01.748Z,22.07
2023-06-04T15:52:29.361Z,21.49
2023-06-04T15:54:56.542Z,20.87
2023-06-04T15:57:23.673Z,19.87
2023-06-04T15:59:50.923Z,19.51
2023-06-04T16:02:18.276Z,19.00
2023-06-04T16:04:45.492Z,18.42
2023-06-04T16:07:12.615Z,17.63
2023-06-04T16:09:39.951Z,17.17
2023-06-04T16:12:07.230Z,16.86
2023-06-04T16:14:34.902Z,16.67
2023-06-04T16:17:03.749Z,16.68
2023-06-04T16:19:31.117Z,16.54
2023-06-04T16:21:58.881Z,16.08
2023-06-04T16:24:26.248Z,16.05
2023-06-04T16:26:53.779Z,16.31
2023-06-04T16:29:20.843Z,16.00
2023-06-04T16:31:48.930Z,15.90
2023-06-04T16:34:16.071Z,16.39
2023-06-04T16:36:43.780Z,17.15
2023-06-04T16:39:13.040Z,17.90
2023-06-04T16:41:40.804Z,18.72
2023-06-04T16:44:08.161Z,19.51
2023-06-04T16:46:36.526Z,20.21
2023-06-04T16:49:04.260Z,20.96
2023-06-04T16:51:31.982Z,21.63
2023-06-04T16:53:59.533Z,22.33
2023-06-04T16:56:27.297Z,23.02
2023-06-04T16:58:54.964Z,23.12
2023-06-04T17:01:23.031Z,23.39
2023-06-04T17:03:52.754Z,23.71
2023-06-04T17:06:20.900Z,24.09
2023-06-04T17:08:48.482Z,24.20
2023-06-04T17:11:16.152Z,24.73
2023-06-04T17:13:43.691Z,24.99
2023-06-04T17:16:13.391Z,25.25
2023-06-04T17:18:40.805Z,25.41
2023-06-04T17:21:08.013Z,25.82
2023-06-04T17:23:38.757Z,25.91
2023-06-04T17:26:07.320Z,26.12
2023-06-04T17:28:35.141Z,26.23
2023-06-04T17:31:03.432Z,26.78
2023-06-04T17:33:32.317Z,26.75
2023-06-04T17:36:02.304Z,26.55
2023-06-04T17:38:29.670Z,26.87
2023-06-04T17:40:57.328Z,26.91
2023-06-04T17:43:25.152Z,27.30
2023-06-04T17:45:53.000Z,27.35
2023-06-04T17:48:22.050Z,27.54
2023-06-04T17:50:50.008Z,27.62
2023-06-04T17:53:17.336Z,27.85
2023-06-04T17:55:45.246Z,28.06
2023-06-04T17:58:12.836Z,28.30
2023-06-04T18:00:42.804Z,28.22
2023-06-04T18:03:12.279Z,28.49
2023-06-04T18:05:39.729Z,28.68
2023-06-04T18:08:10.699Z,29.36
2023-06-04T18:10:39.389Z,29.52
2023-06-04T18:13:08.104Z,29.57
2023-06-04T18:15:35.235Z,29.51
2023-06-04T18:18:03.157Z,29.55
2023-06-04T18:20:33.691Z,29.58
2023-06-04T18:23:01.656Z,29.93
2023-06-04T18:25:31.290Z,29.84
2023-06-04T18:27:59.167Z,30.15
2023-06-04T18:30:26.813Z,30.37
2023-06-04T18:32:54.876Z,30.61
2023-06-04T18:35:22.589Z,30.84
2023-06-04T18:37:50.146Z,31.03
2023-06-04T18:40:17.834Z,31.12
2023-06-04T18:42:46.344Z,31.13
2023-06-04T18:45:15.420Z,31.74
2023-06-04T18:47:43.583Z,32.08
2023-06-04T18:50:12.593Z,32.10
2023-06-04T18:52:40.219Z,32.37
2023-06-04T18:55:08.593Z,32.39
2023-06-04T18:57:37.422Z,32.32
2023-06-04T19:00:09.250Z,32.32
2023-06-04T19:02:37.762Z,32.32
2023-06-04T19:05:10.891Z,31.97
2023-06-04T19:07:40.360Z,31.34
2023-06-04T19:10:07.905Z,31.64
2023-06-04T19:12:35.051Z,32.07
2023-06-04T19:15:02.932Z,32.21
2023-06-04T19:17:31.438Z,32.00
2023-06-04T19:19:58.856Z,31.59
2023-06-04T19:22:26.825Z,31.68
2023-06-04T19:24:54.556Z,31.55
2023-06-04T19:27:22.652Z,31.50
2023-06-04T19:29:50.431Z,31.35
2023-06-04T19:32:18.147Z,31.25
2023-06-04T19:34:49.115Z,31.11
2023-06-04T19:37:18.137Z,31.21
2023-06-04T19:39:46.305Z,31.20
2023-06-04T19:42:13.859Z,31.19
2023-06-04T19:44:41.867Z,31.63
2023-06-04T19:47:09.997Z,31.38
2023-06-04T19:49:37.262Z,31.73
2023-06-04T19:52:05.759Z,31.47
2023-06-04T19:54:33.461Z,31.54
2023-06-04T19:57:01.952Z,30.98
2023-06-04T19:59:29.886Z,30.74
2023-06-04T20:01:58.481Z,30.82
2023-06-04T20:04:26.386Z,30.51
2023-06-04T20:06:56.189Z,30.39
2023-06-04T20:09:26.308Z,30.46
2023-06-04T20:11:55.753Z,30.41
2023-06-04T20:14:23.890Z,30.70
2023-06-04T20:16:52.219Z,31.22
2023-06-04T20:19:21.956Z,31.06
2023-06-04T20:21:49.840Z,31.02
2023-06-04T20:24:18.834Z,31.30
2023-06-04T20:26:48.574Z,31.33
2023-06-04T20:29:15.808Z,31.45
2023-06-04T20:31:46.546Z,31.34
2023-06-04T20:34:15.259Z,31.47
2023-06-04T20:36:42.932Z,31.35
2023-06-04T20:39:10.444Z,31.36
2023-06-04T20:41:39.185Z,31.43
2023-06-04T20:44:07.528Z,31.30
2023-06-04T20:46:34.953Z,31.62
2023-06-04T20:49:04.717Z,31.68
2023-06-04T20:51:34.697Z,31.80
2023-06-04T20:54:02.021Z,31.81
2023-06-04T20:56:29.154Z,31.81
2023-06-04T20:58:57.483Z,32.01
2023-06-04T21:01:24.762Z,32.02
2023-06-04T21:03:53.682Z,32.11
2023-06-04T21:06:20.972Z,32.39
2023-06-04T21:08:48.404Z,32.54
2023-06-04T21:11:15.760Z,32.60
2023-06-04T21:13:43.236Z,32.87
2023-06-04T21:16:10.921Z,32.98
2023-06-04T21:18:38.185Z,33.26
2023-06-04T21:21:05.488Z,33.54
2023-06-04T21:23:32.669Z,33.44
2023-06-04T21:25:59.928Z,33.46
2023-06-04T21:28:27.332Z,33.32
2023-06-04T21:30:54.408Z,33.26
2023-06-04T21:33:21.539Z,33.40
2023-06-04T21:35:48.636Z,33.34
2023-06-04T21:38:15.732Z,32.95
2023-06-04T21:40:43.121Z,32.72
2023-06-04T21:43:10.947Z,32.82
2023-06-04T21:45:38.880Z,32.89
2023-06-04T21:48:06.786Z,32.90
2023-06-04T21:50:33.942Z,32.92
2023-06-04T21:53:01.292Z,32.81
2023-06-04T21:55:28.458Z,32.93
2023-06-04T21:57:56.788Z,32.94
2023-06-04T22:00:24.666Z,32.64
2023-06-04T22:02:52.089Z,32.68
2023-06-04T22:05:19.548Z,32.32
2023-06-04T22:07:48.828Z,32.41
2023-06-04T22:10:16.306Z,32.16
2023-06-04T22:12:44.910Z,32.27
2023-06-04T22:15:12.108Z,32.24
2023-06-04T22:17:39.506Z,32.35
2023-06-04T22:20:07.797Z,32.86
2023-06-04T22:22:35.343Z,32.86
2023-06-04T22:25:02.681Z,32.79
2023-06-04T22:27:29.823Z,33.11
2023-06-04T22:29:57.177Z,33.21
2023-06-04T22:32:24.412Z,33.34
2023-06-04T22:34:51.572Z,33.40
2023-06-04T22:37:18.887Z,32.87
2023-06-04T22:39:46.272Z,32.92
2023-06-04T22:42:13.369Z,32.78
2023-06-04T22:44:40.487Z,32.94
2023-06-04T22:47:09.520Z,33.18
2023-06-04T22:49:38.384Z,33.12
2023-06-04T22:52:06.327Z,33.05
2023-06-04T22:54:33.497Z,33.00
2023-06-04T22:57:00.897Z,32.92
2023-06-04T22:59:27.992Z,33.01
2023-06-04T23:01:55.041Z,33.12
2023-06-04T23:04:22.608Z,33.25
2023-06-04T23:06:49.704Z,33.52
2023-06-04T23:09:16.860Z,33.52
2023-06-04T23:11:44.334Z,33.70
2023-06-04T23:14:11.478Z,33.90
2023-06-04T23:16:39.380Z,33.96
2023-06-04T23:19:06.873Z,34.03
2023-06-04T23:21:34.113Z,33.82
2023-06-04T23:24:01.280Z,33.92
2023-06-04T23:26:28.688Z,34.03
2023-06-04T23:28:55.810Z,34.02
2023-06-04T23:31:22.932Z,33.95
2023-06-04T23:33:50.258Z,33.93
2023-06-04T23:36:18.772Z,33.85
2023-06-04T23:38:47.806Z,33.75
2023-06-04T23:41:15.294Z,33.72
2023-06-04T23:43:43.153Z,33.95
2023-06-04T23:46:10.624Z,33.88
2023-06-04T23:48:38.222Z,33.97
2023-06-04T23:51:05.642Z,34.32
2023-06-04T23:53:33.232Z,34.15
2023-06-04T23:56:00.696Z,34.22
2023-06-04T23:58:28.523Z,34.46
